createdAt,value
2022-10-01T00:00:54.070Z,8.95
2022-10-01T00:03:22.240Z,9.20
2022-10-01T00:06:09.745Z,8.15
2022-10-01T00:08:37.594Z,8.25
2022-10-01T00:11:18.384Z,9.40
2022-10-01T00:13:46.321Z,8.52
2022-10-01T00:16:15.477Z,9.00
2022-10-01T00:18:43.471Z,9.10
2022-10-01T00:21:12.181Z,8.95
2022-10-01T00:23:39.195Z,8.52
2022-10-01T00:26:28.528Z,9.25
2022-10-01T00:28:58.014Z,9.90
2022-10-01T00:31:25.330Z,10.45
2022-10-01T00:33:53.909Z,10.43
2022-10-01T00:36:21.137Z,10.40
2022-10-01T00:38:48.970Z,9.18
2022-10-01T00:41:17.565Z,9.85
2022-10-01T00:43:50.713Z,10.15
2022-10-01T00:46:25.336Z,10.52
2022-10-01T00:49:01.263Z,9.25
2022-10-01T00:51:35.652Z,9.75
2022-10-01T00:54:18.071Z,9.68
2022-10-01T00:56:47.588Z,8.90
2022-10-01T00:59:15.367Z,8.52
2022-10-01T01:01:42.447Z,9.10
2022-10-01T01:04:16.788Z,9.48
2022-10-01T01:06:45.487Z,9.25
2022-10-01T01:09:12.546Z,8.48
2022-10-01T01:11:48.313Z,8.90
2022-10-01T01:14:41.544Z,7.15
2022-10-01T01:17:12.986Z,7.55
2022-10-01T01:20:01.973Z,8.10
2022-10-01T01:22:30.125Z,8.32
2022-10-01T01:24:59.901Z,8.20
2022-10-01T01:27:35.717Z,7.85
2022-10-01T01:30:08.550Z,8.75
2022-10-01T01:32:42.991Z,7.90
2022-10-01T01:35:10.580Z,7.20
2022-10-01T01:37:54.974Z,7.45
2022-10-01T01:40:21.975Z,8.73
2022-10-01T01:42:49.151Z,8.73
2022-10-01T01:45:19.278Z,7.40
2022-10-01T01:47:46.280Z,8.00
2022-10-01T01:50:13.922Z,7.57
2022-10-01T01:52:41.565Z,6.97
2022-10-01T01:55:09.419Z,8.75
2022-10-01T01:57:43.652Z,8.13
2022-10-01T02:00:12.750Z,8.45
2022-10-01T02:02:40.483Z,8.07
2022-10-01T02:05:10.593Z,8.38
2022-10-01T02:07:47.906Z,8.50
2022-10-01T02:10:48.733Z,8.68
2022-10-01T02:13:40.045Z,9.43
2022-10-01T02:16:19.242Z,10.13
2022-10-01T02:19:23.930Z,9.50
2022-10-01T02:24:41.648Z,8.88
2022-10-01T02:27:41.501Z,8.35
2022-10-01T02:30:09.205Z,10.85
2022-10-01T02:32:37.853Z,9.80
2022-10-01T02:35:09.030Z,9.43
2022-10-01T02:37:36.354Z,9.75
2022-10-01T02:40:03.742Z,10.75
2022-10-01T02:42:30.858Z,9.18
2022-10-01T02:44:57.882Z,8.30
2022-10-01T02:47:33.519Z,8.10
2022-10-01T02:50:01.920Z,9.18
2022-10-01T02:52:28.736Z,10.38
2022-10-01T02:55:08.013Z,10.00
2022-10-01T02:57:35.814Z,8.40
2022-10-01T03:00:08.800Z,8.60
2022-10-01T03:02:35.825Z,8.38
2022-10-01T03:05:02.965Z,9.85
2022-10-01T03:07:31.389Z,8.30
2022-10-01T03:09:58.459Z,8.45
2022-10-01T03:12:25.478Z,9.50
2022-10-01T03:14:53.313Z,9.43
2022-10-01T03:17:20.464Z,8.02
2022-10-01T03:19:47.414Z,8.80
2022-10-01T03:22:16.408Z,8.63
2022-10-01T03:24:43.387Z,9.00
2022-10-01T03:27:10.456Z,9.05
2022-10-01T03:29:37.545Z,8.85
2022-10-01T03:32:04.552Z,8.13
2022-10-01T03:34:31.531Z,9.48
2022-10-01T03:36:58.488Z,7.38
2022-10-01T03:39:25.466Z,9.05
2022-10-01T03:41:52.464Z,8.02
2022-10-01T03:44:19.510Z,7.72
2022-10-01T03:46:46.440Z,9.07
2022-10-01T03:49:13.482Z,8.82
2022-10-01T03:51:40.626Z,8.65
2022-10-01T03:54:07.983Z,7.63
2022-10-01T03:56:35.518Z,7.22
2022-10-01T03:59:02.612Z,8.35
2022-10-01T04:01:31.019Z,8.23
2022-10-01T04:03:58.166Z,8.05
2022-10-01T04:06:25.161Z,8.23
2022-10-01T04:08:52.113Z,8.05
2022-10-01T04:11:19.205Z,8.45
2022-10-01T04:13:46.080Z,8.25
2022-10-01T04:16:13.118Z,8.30
2022-10-01T04:18:40.082Z,7.43
2022-10-01T04:21:06.998Z,8.75
2022-10-01T04:23:33.952Z,8.35
2022-10-01T04:26:02.480Z,7.90
2022-10-01T04:28:30.567Z,7.88
2022-10-01T04:31:17.615Z,8.10
2022-10-01T04:33:44.808Z,8.60
2022-10-01T04:36:11.984Z,7.85
2022-10-01T04:38:38.918Z,8.43
2022-10-01T04:41:06.058Z,8.73
2022-10-01T04:43:33.011Z,8.23
2022-10-01T04:45:59.946Z,9.35
2022-10-01T04:48:26.824Z,8.77
2022-10-01T04:50:53.708Z,8.07
2022-10-01T04:53:20.758Z,8.65
2022-10-01T04:55:47.678Z,9.57
2022-10-01T04:58:14.748Z,10.23
2022-10-01T05:00:41.710Z,10.07
2022-10-01T05:03:08.680Z,9.90
2022-10-01T05:05:35.686Z,11.48
2022-10-01T05:08:02.605Z,11.32
2022-10-01T05:10:29.587Z,10.43
2022-10-01T05:12:58.131Z,9.32
2022-10-01T05:15:25.108Z,10.13
2022-10-01T05:17:52.287Z,10.00
2022-10-01T05:20:20.826Z,10.32
2022-10-01T05:22:49.169Z,9.98
2022-10-01T05:25:16.886Z,9.50
2022-10-01T05:27:43.951Z,9.48
2022-10-01T05:30:12.288Z,9.20
2022-10-01T05:32:39.301Z,9.13
2022-10-01T05:35:07.263Z,11.15
2022-10-01T05:37:34.780Z,10.45
2022-10-01T05:40:01.914Z,9.07
2022-10-01T05:42:29.047Z,9.73
2022-10-01T05:44:56.256Z,8.55
2022-10-01T05:47:23.426Z,10.05
2022-10-01T05:49:50.443Z,10.10
2022-10-01T05:52:17.310Z,9.98
2022-10-01T05:54:44.295Z,10.85
2022-10-01T05:57:11.329Z,10.80
2022-10-01T05:59:38.276Z,11.43
2022-10-01T06:02:05.465Z,10.10
2022-10-01T06:04:32.485Z,10.73
2022-10-01T06:06:59.662Z,10.30
2022-10-01T06:09:26.665Z,9.27
2022-10-01T06:11:53.811Z,9.40
2022-10-01T06:14:20.703Z,11.93
2022-10-01T06:16:53.927Z,9.38
2022-10-01T06:19:23.094Z,10.80
2022-10-01T06:21:50.134Z,10.50
2022-10-01T06:24:17.172Z,10.80
2022-10-01T06:26:44.099Z,10.90
2022-10-01T06:29:12.742Z,10.63
2022-10-01T06:31:39.873Z,10.40
2022-10-01T06:34:07.030Z,9.50
2022-10-01T06:36:34.310Z,10.27
2022-10-01T06:39:01.381Z,10.70
2022-10-01T06:41:28.658Z,11.02
2022-10-01T06:43:55.883Z,11.50
2022-10-01T06:46:24.238Z,11.25
2022-10-01T06:48:51.329Z,9.65
2022-10-01T06:51:38.143Z,10.30
2022-10-01T06:54:05.150Z,10.65
2022-10-01T06:56:32.114Z,10.55
2022-10-01T06:58:59.093Z,11.48
2022-10-01T07:01:26.041Z,9.88
2022-10-01T07:03:54.324Z,8.98
2022-10-01T07:06:21.238Z,9.52
2022-10-01T07:08:51.450Z,10.05
2022-10-01T07:11:19.331Z,10.18
2022-10-01T07:13:52.350Z,10.40
2022-10-01T07:16:21.369Z,9.80
2022-10-01T07:18:48.460Z,9.85
2022-10-01T07:21:15.555Z,9.65
2022-10-01T07:23:43.388Z,10.10
2022-10-01T07:26:10.611Z,8.80
2022-10-01T07:28:37.576Z,9.30
2022-10-01T07:31:11.582Z,9.50
2022-10-01T07:33:39.484Z,10.43
2022-10-01T07:36:07.710Z,9.63
2022-10-01T07:38:34.858Z,9.40
2022-10-01T07:41:03.027Z,9.95
2022-10-01T07:43:31.209Z,9.27
2022-10-01T07:45:58.439Z,9.32
2022-10-01T07:48:25.814Z,9.57
2022-10-01T07:50:53.153Z,10.50
2022-10-01T07:53:20.113Z,9.77
2022-10-01T07:55:47.020Z,8.85
2022-10-01T07:58:13.918Z,7.30
2022-10-01T08:00:43.596Z,9.45
2022-10-01T08:03:13.339Z,8.15
2022-10-01T08:05:41.464Z,8.10
2022-10-01T08:08:08.865Z,8.18
2022-10-01T08:10:37.014Z,7.57
2022-10-01T08:13:28.206Z,7.43
2022-10-01T08:18:58.423Z,7.40
2022-10-01T08:21:26.596Z,6.97
2022-10-01T08:23:53.826Z,6.78
2022-10-01T08:26:20.939Z,6.88
2022-10-01T08:28:47.849Z,7.22
2022-10-01T08:31:14.813Z,8.40
2022-10-01T08:33:41.770Z,8.00
2022-10-01T08:36:09.054Z,7.43
2022-10-01T08:38:37.459Z,7.22
2022-10-01T08:41:27.486Z,7.63
2022-10-01T08:43:54.445Z,7.63
2022-10-01T08:46:22.970Z,7.32
2022-10-01T08:48:58.809Z,6.75
2022-10-01T08:51:28.221Z,6.50
2022-10-01T08:54:13.686Z,6.63
2022-10-01T08:56:44.598Z,5.90
2022-10-01T08:59:27.412Z,5.80
2022-10-01T09:01:59.240Z,5.87
2022-10-01T09:04:29.623Z,5.20
2022-10-01T09:07:05.697Z,6.47
2022-10-01T09:09:46.864Z,5.88
2022-10-01T09:12:21.319Z,7.68
2022-10-01T09:15:06.674Z,6.78
2022-10-01T09:17:52.388Z,6.40
2022-10-01T09:20:57.725Z,5.72
2022-10-01T09:23:29.612Z,6.30
2022-10-01T09:26:00.243Z,6.40
2022-10-01T09:28:31.808Z,5.78
2022-10-01T09:31:17.911Z,5.18
2022-10-01T09:33:51.134Z,5.70
2022-10-01T09:36:43.723Z,4.95
2022-10-01T09:39:44.938Z,5.30
2022-10-01T09:42:14.045Z,4.57
2022-10-01T09:44:42.859Z,4.55
2022-10-01T09:47:18.619Z,4.50
2022-10-01T09:49:51.216Z,4.82
2022-10-01T09:52:37.508Z,5.00
2022-10-01T09:55:26.647Z,4.93
2022-10-01T09:58:05.533Z,5.65
2022-10-01T10:00:35.243Z,5.13
2022-10-01T10:03:25.351Z,5.45
2022-10-01T10:06:16.348Z,4.70
2022-10-01T10:08:52.529Z,4.70
2022-10-01T10:11:22.620Z,5.88
2022-10-01T10:13:52.249Z,5.05
2022-10-01T10:16:36.325Z,5.70
2022-10-01T10:19:06.791Z,5.05
2022-10-01T10:21:35.131Z,5.53
2022-10-01T10:24:03.941Z,4.80
2022-10-01T10:26:39.394Z,5.20
2022-10-01T10:29:08.775Z,4.28
2022-10-01T10:32:15.723Z,3.35
2022-10-01T10:34:48.872Z,2.38
2022-10-01T10:44:49.508Z,1.88
2022-10-01T10:47:29.300Z,1.88
2022-10-01T10:50:00.732Z,1.75
2022-10-01T10:52:36.646Z,1.58
2022-10-01T10:55:25.262Z,1.38
2022-10-01T10:57:57.340Z,1.35
2022-10-01T11:00:25.410Z,1.55
2022-10-01T11:03:00.387Z,1.48
2022-10-01T11:05:30.253Z,1.60
2022-10-01T11:08:03.441Z,1.50
2022-10-01T11:10:49.745Z,2.88
2022-10-01T11:13:39.430Z,2.08
2022-10-01T11:16:41.510Z,2.05
2022-10-01T11:19:23.617Z,2.08
2022-10-01T11:21:56.668Z,2.03
2022-10-01T11:24:43.261Z,2.65
2022-10-01T11:27:38.165Z,2.47
2022-10-01T11:30:11.155Z,2.42
2022-10-01T11:33:50.760Z,2.78
2022-10-01T11:36:56.299Z,3.30
2022-10-01T11:39:28.561Z,2.75
2022-10-01T11:42:04.828Z,3.15
2022-10-01T11:45:00.689Z,3.85
2022-10-01T11:47:32.036Z,2.67
2022-10-01T11:53:38.395Z,3.17
2022-10-01T12:00:17.904Z,1.98
2022-10-01T12:07:22.418Z,4.53
2022-10-01T12:11:11.544Z,4.65
2022-10-01T12:13:30.152Z,4.50
2022-10-01T12:16:43.503Z,6.07
2022-10-01T12:19:25.314Z,4.75
2022-10-01T12:22:24.396Z,6.38
2022-10-01T12:24:52.155Z,6.53
2022-10-01T12:27:25.125Z,6.93
2022-10-01T12:30:21.340Z,6.82
2022-10-01T12:32:48.205Z,6.20
2022-10-01T12:35:36.753Z,8.15
2022-10-01T12:38:06.718Z,6.68
2022-10-01T12:40:49.247Z,6.28
2022-10-01T12:44:04.154Z,6.07
2022-10-01T12:47:04.466Z,5.50
2022-10-01T12:49:37.606Z,3.95
2022-10-01T12:52:11.183Z,4.15
2022-10-01T12:58:09.707Z,4.40
2022-10-01T13:01:07.579Z,4.57
2022-10-01T13:03:58.833Z,3.90
2022-10-01T13:06:49.269Z,3.70
2022-10-01T13:09:32.568Z,3.45
2022-10-01T13:12:12.291Z,5.35
2022-10-01T13:14:44.568Z,4.47
2022-10-01T13:17:34.789Z,5.18
2022-10-01T13:20:45.886Z,4.05
2022-10-01T13:23:34.034Z,4.82
2022-10-01T13:26:02.957Z,4.60
2022-10-01T13:28:53.377Z,4.70
2022-10-01T13:31:20.618Z,4.47
2022-10-01T13:33:57.665Z,4.57
2022-10-01T13:36:32.212Z,4.78
2022-10-01T13:38:59.745Z,3.85
2022-10-01T13:41:33.947Z,4.35
2022-10-01T13:44:11.800Z,4.45
2022-10-01T13:47:03.486Z,5.97
2022-10-01T13:49:30.842Z,4.85
2022-10-01T13:51:58.070Z,5.22
2022-10-01T13:54:31.328Z,5.35
2022-10-01T13:57:10.601Z,5.00
2022-10-01T13:59:37.979Z,4.40
2022-10-01T14:02:29.426Z,6.13
2022-10-01T14:04:56.611Z,4.30
2022-10-01T14:07:30.852Z,4.85
2022-10-01T14:09:58.640Z,6.30
2022-10-01T14:12:50.758Z,5.55
2022-10-01T14:15:49.010Z,5.22
2022-10-01T14:18:19.337Z,6.10
2022-10-01T14:21:26.060Z,7.85
2022-10-01T14:24:05.467Z,5.55
2022-10-01T14:27:00.206Z,6.78
2022-10-01T14:29:39.591Z,7.40
2022-10-01T14:32:23.243Z,6.22
2022-10-01T14:35:08.635Z,6.05
2022-10-01T14:37:39.365Z,5.85
2022-10-01T14:40:23.115Z,5.03
2022-10-01T14:43:03.984Z,8.07
2022-10-01T14:45:33.138Z,6.55
2022-10-01T14:48:05.485Z,7.93
2022-10-01T14:50:36.372Z,6.07
2022-10-01T14:53:03.572Z,8.32
2022-10-01T14:55:30.897Z,7.25
2022-10-01T14:57:58.092Z,8.68
2022-10-01T15:00:29.888Z,9.82
2022-10-01T15:03:13.395Z,7.70
2022-10-01T15:05:40.521Z,6.03
2022-10-01T15:08:14.689Z,7.80
2022-10-01T15:10:45.365Z,5.78
2022-10-01T15:13:20.706Z,6.88
2022-10-01T15:15:47.839Z,6.50
2022-10-01T15:18:15.453Z,5.25
2022-10-01T15:21:05.823Z,7.15
2022-10-01T15:23:34.765Z,6.85
2022-10-01T15:26:10.777Z,6.55
2022-10-01T15:28:37.974Z,6.35
2022-10-01T15:31:06.445Z,9.25
2022-10-01T15:33:35.576Z,7.10
2022-10-01T15:36:04.533Z,9.15
2022-10-01T15:38:32.422Z,8.93
2022-10-01T15:41:19.821Z,7.78
2022-10-01T15:43:48.000Z,8.55
2022-10-01T15:46:25.517Z,6.97
2022-10-01T15:49:18.634Z,7.10
2022-10-01T15:52:16.540Z,7.57
2022-10-01T15:54:43.938Z,7.65
2022-10-01T15:57:16.904Z,8.45
2022-10-01T15:59:43.908Z,7.65
2022-10-01T16:02:19.672Z,9.13
2022-10-01T16:04:48.178Z,6.13
2022-10-01T16:07:20.164Z,6.57
2022-10-01T16:09:57.559Z,8.02
2022-10-01T16:12:26.875Z,9.10
2022-10-01T16:15:01.035Z,8.77
2022-10-01T16:17:40.033Z,8.75
2022-10-01T16:20:16.346Z,9.45
2022-10-01T16:22:43.655Z,10.73
2022-10-01T16:25:19.798Z,11.50
2022-10-01T16:27:51.146Z,10.05
2022-10-01T16:30:21.842Z,10.15
2022-10-01T16:32:49.296Z,10.02
2022-10-01T16:35:20.486Z,9.82
2022-10-01T16:37:49.768Z,11.23
2022-10-01T16:40:17.803Z,13.35
2022-10-01T16:42:45.370Z,13.38
2022-10-01T16:45:16.448Z,12.38
2022-10-01T16:47:43.842Z,20.17
2022-10-01T16:50:11.746Z,10.82
2022-10-01T16:52:41.237Z,10.98
2022-10-01T17:02:56.070Z,11.70
2022-10-01T17:14:56.605Z,10.57
2022-10-01T17:17:38.083Z,11.32
2022-10-01T17:30:09.976Z,11.10
2022-10-01T17:32:42.699Z,12.43
2022-10-01T17:35:14.076Z,10.83
2022-10-01T17:37:44.714Z,10.82
2022-10-01T17:40:11.864Z,10.23
2022-10-01T17:42:38.922Z,10.25
2022-10-01T17:45:11.965Z,10.20
2022-10-01T17:47:51.569Z,8.68
2022-10-01T17:50:18.745Z,8.15
2022-10-01T17:52:47.331Z,7.82
2022-10-01T17:55:14.921Z,7.07
2022-10-01T17:57:42.062Z,7.68
2022-10-01T18:00:09.441Z,7.25
2022-10-01T18:11:53.579Z,5.78
2022-10-01T18:14:36.853Z,5.47
2022-10-01T18:17:11.402Z,5.40
2022-10-01T18:19:54.316Z,5.10
2022-10-01T18:22:52.133Z,6.43
2022-10-01T18:26:58.709Z,6.20
2022-10-01T18:28:29.267Z,6.32
2022-10-01T18:31:11.828Z,5.85
2022-10-01T18:34:17.235Z,5.15
2022-10-01T18:37:03.846Z,5.50
2022-10-01T18:40:08.989Z,5.60
2022-10-01T18:42:58.063Z,6.07
2022-10-01T18:45:37.277Z,5.65
2022-10-01T18:48:23.160Z,5.07
2022-10-01T18:51:00.403Z,5.30
2022-10-01T18:53:39.537Z,5.43
2022-10-01T18:56:21.184Z,5.10
2022-10-01T18:59:28.230Z,5.07
2022-10-01T19:02:17.287Z,5.55
2022-10-01T19:05:28.823Z,6.35
2022-10-01T19:08:21.048Z,6.20
2022-10-01T19:11:04.497Z,5.57
2022-10-01T19:17:19.796Z,5.65
2022-10-01T19:20:26.393Z,5.28
2022-10-01T19:23:02.920Z,4.78
2022-10-01T19:25:42.186Z,5.15
2022-10-01T19:28:25.697Z,4.45
2022-10-01T19:31:17.257Z,4.57
2022-10-01T19:33:56.222Z,4.47
2022-10-01T19:36:29.527Z,3.40
2022-10-01T19:39:00.178Z,2.90
2022-10-01T19:41:48.766Z,2.10
2022-10-01T19:44:36.005Z,2.25
2022-10-01T19:47:28.519Z,1.30
2022-10-01T19:50:07.966Z,1.15
2022-10-01T19:52:38.549Z,1.10
2022-10-01T19:55:11.963Z,1.23
2022-10-01T19:57:43.808Z,1.08
2022-10-01T20:00:18.504Z,0.90
2022-10-01T20:03:04.549Z,0.80
2022-10-01T20:05:41.908Z,1.17
2022-10-01T20:08:36.512Z,1.48
2022-10-01T20:11:14.344Z,1.20
2022-10-01T20:14:00.116Z,1.15
2022-10-01T20:16:47.274Z,1.08
2022-10-01T20:19:28.360Z,1.30
2022-10-01T20:21:58.495Z,1.63
2022-10-01T20:24:35.510Z,2.13
2022-10-01T20:27:14.212Z,1.77
2022-10-01T20:29:44.155Z,1.70
2022-10-01T20:32:24.636Z,1.65
2022-10-01T20:35:24.486Z,1.42
2022-10-01T20:38:09.543Z,1.40
2022-10-01T20:41:00.664Z,1.20
2022-10-01T20:43:45.063Z,1.10
2022-10-01T20:46:14.958Z,1.10
2022-10-01T20:48:45.483Z,1.20
2022-10-01T20:52:01.530Z,1.25
2022-10-01T20:57:45.358Z,1.05
2022-10-01T21:00:22.445Z,1.00
2022-10-01T21:03:24.211Z,0.80
2022-10-01T21:05:55.476Z,0.80
2022-10-01T21:08:34.713Z,0.90
2022-10-01T21:11:15.341Z,0.90
2022-10-01T21:14:13.662Z,0.88
2022-10-01T21:16:53.108Z,0.90
2022-10-01T21:19:22.965Z,1.10
2022-10-01T21:22:14.024Z,1.00
2022-10-01T21:25:16.670Z,1.00
2022-10-01T21:27:56.485Z,0.73
2022-10-01T21:30:23.646Z,0.88
2022-10-01T21:33:02.523Z,0.75
2022-10-01T21:35:53.234Z,1.05
2022-10-01T21:38:30.581Z,0.87
2022-10-01T21:41:15.989Z,1.17
2022-10-01T21:43:50.144Z,1.20
2022-10-01T21:46:34.973Z,2.08
2022-10-01T21:49:27.282Z,2.67
2022-10-01T21:52:03.318Z,3.42
2022-10-01T21:54:55.561Z,3.63
2022-10-01T21:57:51.735Z,3.55
2022-10-01T22:00:23.309Z,3.15
2022-10-01T22:03:14.600Z,2.85
2022-10-01T22:06:10.038Z,2.78
2022-10-01T22:09:06.430Z,2.80
2022-10-01T22:11:40.913Z,2.08
2022-10-01T22:14:16.459Z,2.00
2022-10-01T22:16:49.176Z,1.70
2022-10-01T22:19:18.678Z,1.77
2022-10-01T22:21:48.247Z,1.70
2022-10-01T22:24:20.416Z,1.60
2022-10-01T22:26:54.152Z,1.85
2022-10-01T22:29:27.782Z,1.73
2022-10-01T22:34:25.944Z,1.73
2022-10-01T22:36:59.030Z,1.65
2022-10-01T22:39:30.004Z,2.42
2022-10-01T22:42:11.315Z,1.63
2022-10-01T22:44:38.414Z,1.48
2022-10-01T22:47:30.552Z,1.52
2022-10-01T22:50:15.964Z,1.08
2022-10-01T22:53:09.963Z,1.33
2022-10-01T22:55:55.108Z,1.60
2022-10-01T22:58:40.681Z,1.25
2022-10-01T23:01:08.750Z,1.65
2022-10-01T23:03:54.276Z,1.60
2022-10-01T23:06:27.293Z,1.88
2022-10-01T23:09:00.417Z,1.70
2022-10-01T23:11:32.560Z,2.00
2022-10-01T23:14:07.207Z,1.80
2022-10-01T23:16:47.677Z,1.83
2022-10-01T23:20:05.702Z,1.83
2022-10-01T23:22:39.308Z,1.65
2022-10-01T23:27:54.072Z,1.25
2022-10-01T23:30:27.880Z,0.98
2022-10-01T23:33:11.797Z,1.20
2022-10-01T23:38:39.665Z,1.42
2022-10-01T23:41:17.160Z,0.75
2022-10-01T23:43:49.461Z,1.30
2022-10-01T23:46:16.669Z,0.90
2022-10-01T23:49:17.207Z,0.80
2022-10-01T23:52:09.087Z,0.80
2022-10-01T23:54:57.469Z,0.98
2022-10-01T23:57:42.550Z,0.88
